Time;durP1;ratioP1;P1;durP2;ratioP2;P2;SDS_P1;SDS_P2;PMS_P1;PMS_P2;Temp;Humidity;BMP_temperature;BMP_pressure;BME280_temperature;BME280_humidity;BME280_pressure;Samples;Min_cycle;Max_cycle;Signal;HPM_P1;HPM_P2
2021/04/17 00:02:11;;;;;;;9.80;7.27;;;;;;;;;;5093126;28;20437;-58
2021/04/17 00:04:56;;;;;;;9.00;6.80;;;;;;;;;;5093546;28;20089;-58
2021/04/17 00:07:26;;;;;;;10.37;6.77;;;;;;;;;;5093004;28;20024;-58
2021/04/17 00:09:58;;;;;;;;;;;;;;;;;;5092808;28;20077;-58
2021/04/17 00:12:33;;;;;;;8.87;5.90;;;;;;;;;;5093907;28;20234;-58
2021/04/17 00:15:05;;;;;;;8.77;6.00;;;;;;;;;;5091730;28;20529;-58
2021/04/17 00:17:52;;;;;;;6.90;6.20;;;;;;;;;;5091078;28;20036;-58
2021/04/17 00:20:18;;;;;;;15.53;8.93;;;;;;;;;;5093618;28;20036;-58
2021/04/17 00:22:51;;;;;;;8.13;6.37;;;;;;;;;;5091665;28;20061;-58
2021/04/17 00:25:28;;;;;;;7.70;6.87;;;;;;;;;;5093231;28;20024;-58
2021/04/17 00:28:01;;;;;;;9.73;7.13;;;;;;;;;;5093582;28;20020;-58
2021/04/17 00:30:30;;;;;;;9.27;7.37;;;;;;;;;;5093705;28;20048;-58
2021/04/17 00:33:03;;;;;;;8.13;6.57;;;;;;;;;;5092989;28;20052;-58
2021/04/17 00:35:33;;;;;;;8.03;6.87;;;;;;;;;;5094100;28;20353;-57
2021/04/17 00:38:10;;;;;;;11.45;8.35;;;;;;;;;;5097405;28;20545;-58
2021/04/17 00:40:46;;;;;;;8.93;7.10;;;;;;;;;;5094948;28;20089;-58
2021/04/17 00:43:16;;;;;;;9.57;7.63;;;;;;;;;;5097236;28;20030;-58
2021/04/17 00:45:51;;;;;;;10.93;7.53;;;;;;;;;;5096835;28;20032;-58
2021/04/17 00:48:28;;;;;;;12.43;8.70;;;;;;;;;;5096577;28;20141;-58
2021/04/17 00:51:05;;;;;;;9.80;7.17;;;;;;;;;;5096844;28;20048;-58
2021/04/17 00:53:38;;;;;;;10.30;7.80;;;;;;;;;;5097214;28;20028;-58
2021/04/17 00:56:11;;;;;;;10.77;7.87;;;;;;;;;;5097232;28;20027;-58
2021/04/17 00:58:37;;;;;;;8.17;7.33;;;;;;;;;;5096118;28;20042;-58
2021/04/17 01:01:15;;;;;;;7.97;7.27;;;;;;;;;;5096320;28;20028;-58
2021/04/17 01:03:54;;;;;;;8.67;6.97;;;;;;;;;;5096866;28;20373;-57
2021/04/17 01:06:22;;;;;;;8.23;7.03;;;;;;;;;;5095497;28;20039;-58
2021/04/17 01:09:08;;;;;;;13.30;8.67;;;;;;;;;;5078721;28;20083;-58
2021/04/17 01:11:57;;;;;;;9.17;7.03;;;;;;;;;;5078267;28;20118;-58
2021/04/17 01:14:23;;;;;;;11.97;8.53;;;;;;;;;;5083797;28;20107;-58
2021/04/17 01:16:49;;;;;;;9.13;7.57;;;;;;;;;;5096217;28;20495;-58
2021/04/17 01:19:32;;;;;;;11.97;8.53;;;;;;;;;;5095840;28;20024;-58
2021/04/17 01:22:09;;;;;;;9.53;8.47;;;;;;;;;;5096236;28;20031;-58
2021/04/17 01:24:42;;;;;;;13.50;7.83;;;;;;;;;;5097011;28;20024;-58
2021/04/17 01:27:11;;;;;;;10.40;7.53;;;;;;;;;;5096943;28;20048;-58
2021/04/17 01:29:48;;;;;;;9.17;6.77;;;;;;;;;;5094542;28;20028;-58
2021/04/17 01:32:17;;;;;;;8.73;7.23;;;;;;;;;;5095929;28;20031;-58
2021/04/17 01:34:50;;;;;;;9.27;8.03;;;;;;;;;;5096284;28;20016;-58
2021/04/17 01:37:23;;;;;;;9.63;7.73;;;;;;;;;;5094663;28;20111;-58
2021/04/17 01:39:51;;;;;;;10.53;8.43;;;;;;;;;;5095763;28;20059;-58
2021/04/17 01:42:17;;;;;;;9.43;7.23;;;;;;;;;;5095666;28;20039;-58
2021/04/17 01:45:00;;;;;;;10.47;8.03;;;;;;;;;;5096190;28;20466;-58
2021/04/17 01:47:26;;;;;;;9.40;8.07;;;;;;;;;;5095686;28;20114;-58
2021/04/17 01:49:57;;;;;;;9.23;8.13;;;;;;;;;;5076799;28;20373;-58
2021/04/17 01:52:27;;;;;;;10.50;9.10;;;;;;;;;;5095576;28;20039;-58
2021/04/17 01:55:01;;;;;;;8.93;8.02;;;;;;;;;;5094050;28;20032;-58
2021/04/17 01:57:28;;;;;;;10.87;7.80;;;;;;;;;;5093821;28;20021;-58
2021/04/17 02:02:52;;;;;;;12.23;7.73;;;;;;;;;;5095768;28;20029;-58
2021/04/17 02:08:16;;;;;;;9.67;7.63;;;;;;;;;;5092820;28;20027;-58
2021/04/17 02:10:42;;;;;;;;;;;;;;;;;;5096128;28;20403;-58
2021/04/17 02:13:15;;;;;;;8.80;7.90;;;;;;;;;;5093858;28;20280;-58
2021/04/17 02:15:48;;;;;;;8.67;7.60;;;;;;;;;;5095553;28;20027;-58
2021/04/17 02:18:34;;;;;;;9.23;8.17;;;;;;;;;;5093200;28;20028;-58
2021/04/17 02:21:28;;;;;;;10.63;8.17;;;;;;;;;;5093498;28;20059;-58
2021/04/17 02:23:55;;;;;;;10.93;8.60;;;;;;;;;;5094000;28;20492;-58
2021/04/17 02:29:17;;;;;;;9.30;8.27;;;;;;;;;;5094519;28;20028;-58
2021/04/17 02:31:52;;;;;;;11.37;9.27;;;;;;;;;;5094857;28;20066;-58
2021/04/17 02:34:19;;;;;;;12.60;8.87;;;;;;;;;;5093708;28;20118;-58
2021/04/17 02:37:07;;;;;;;;;;;;;;;;;;;;;
2021/04/17 02:39:39;;;;;;;8.80;6.97;;;;;;;;;;5092135;28;20040;-58
2021/04/17 02:42:06;;;;;;;12.13;8.50;;;;;;;;;;5094581;28;20016;-57
2021/04/17 02:44:45;;;;;;;11.07;9.97;;;;;;;;;;5094543;28;20062;-58
2021/04/17 02:47:13;;;;;;;10.87;7.73;;;;;;;;;;5092922;28;20031;-58
2021/04/17 02:49:50;;;;;;;9.83;8.47;;;;;;;;;;5093034;28;20192;-58
2021/04/17 02:52:16;;;;;;;9.83;8.57;;;;;;;;;;5094053;28;20028;-58
2021/04/17 02:54:42;;;;;;;14.10;9.60;;;;;;;;;;5094794;28;20024;-57
2021/04/17 02:57:14;;;;;;;10.83;8.13;;;;;;;;;;5092556;28;20538;-58
2021/04/17 02:59:56;;;;;;;12.07;9.20;;;;;;;;;;5092402;28;20115;-58
2021/04/17 03:02:30;;;;;;;15.90;9.10;;;;;;;;;;5094373;28;20024;-58
2021/04/17 03:05:00;;;;;;;11.63;8.53;;;;;;;;;;5095051;28;20032;-58
2021/04/17 03:07:32;;;;;;;8.70;7.83;;;;;;;;;;5093940;28;20526;-58
2021/04/17 03:10:05;;;;;;;10.13;8.97;;;;;;;;;;5094640;28;20107;-58
2021/04/17 03:12:34;;;;;;;10.73;8.80;;;;;;;;;;5093697;28;20066;-58
2021/04/17 03:15:07;;;;;;;11.33;9.73;;;;;;;;;;5094601;28;20088;-58
2021/04/17 03:17:36;;;;;;;12.10;9.30;;;;;;;;;;5093655;28;20024;-58
2021/04/17 03:22:53;;;;;;;;;;;;;;;;;;5094405;28;20036;-58
2021/04/17 03:25:35;;;;;;;9.93;8.93;;;;;;;;;;5092191;28;20353;-58
2021/04/17 03:28:08;;;;;;;13.87;9.40;;;;;;;;;;5094525;28;20028;-58
2021/04/17 03:30:46;;;;;;;13.63;9.60;;;;;;;;;;5094063;28;20149;-58
2021/04/17 03:33:18;;;;;;;11.27;8.43;;;;;;;;;;5093712;28;20043;-58
2021/04/17 03:35:54;;;;;;;11.23;9.63;;;;;;;;;;5093605;28;20059;-58
2021/04/17 03:38:35;;;;;;;11.33;9.47;;;;;;;;;;5093358;28;20441;-58
2021/04/17 03:41:09;;;;;;;11.70;10.10;;;;;;;;;;5092793;28;20035;-58
2021/04/17 03:43:47;;;;;;;11.80;10.30;;;;;;;;;;5093830;28;20024;-58
2021/04/17 03:46:22;;;;;;;12.30;9.93;;;;;;;;;;5093462;28;20111;-58
2021/04/17 03:48:54;;;;;;;9.80;8.80;;;;;;;;;;5093755;28;20028;-58
2021/04/17 03:51:23;;;;;;;10.97;9.87;;;;;;;;;;5090021;28;20140;-58
2021/04/17 03:53:49;;;;;;;9.97;8.97;;;;;;;;;;5094058;28;20020;-58
2021/04/17 03:56:21;;;;;;;12.17;10.97;;;;;;;;;;5093489;28;20024;-58
2021/04/17 03:59:07;;;;;;;13.07;10.57;;;;;;;;;;5093250;28;20055;-58
2021/04/17 04:01:42;;;;;;;11.60;9.83;;;;;;;;;;5092288;28;20457;-58
2021/04/17 04:04:13;;;;;;;14.40;10.33;;;;;;;;;;5092885;28;20025;-58
2021/04/17 04:06:44;;;;;;;11.23;10.27;;;;;;;;;;5093568;28;20484;-58
2021/04/17 04:09:16;;;;;;;;;;;;;;;;;;5094459;28;20061;-58
2021/04/17 04:11:52;;;;;;;12.93;9.70;;;;;;;;;;5094571;28;19943;-58
2021/04/17 04:14:18;;;;;;;14.90;11.33;;;;;;;;;;5097194;28;20488;-58
2021/04/17 04:16:47;;;;;;;13.63;10.00;;;;;;;;;;5097581;28;20121;-58
2021/04/17 04:19:16;;;;;;;18.33;11.07;;;;;;;;;;5093998;28;20394;-58
2021/04/17 04:21:48;;;;;;;13.30;10.93;;;;;;;;;;5097328;28;20029;-58
2021/04/17 04:24:14;;;;;;;13.10;11.13;;;;;;;;;;5097688;28;20028;-58
2021/04/17 04:26:43;;;;;;;13.33;11.80;;;;;;;;;;5096959;28;20028;-58
2021/04/17 04:29:12;;;;;;;13.43;11.23;;;;;;;;;;5095500;28;20032;-58
2021/04/17 04:31:46;;;;;;;13.37;10.27;;;;;;;;;;5096192;28;20039;-58
2021/04/17 04:34:34;;;;;;;13.63;12.23;;;;;;;;;;5098026;28;20103;-58
2021/04/17 04:37:05;;;;;;;14.47;10.53;;;;;;;;;;5095669;28;20119;-58
2021/04/17 04:39:35;;;;;;;13.53;10.73;;;;;;;;;;5095137;28;20477;-58
2021/04/17 04:42:01;;;;;;;12.10;10.37;;;;;;;;;;5097040;28;20024;-57
2021/04/17 04:44:34;;;;;;;15.70;10.87;;;;;;;;;;5097450;28;20114;-58
2021/04/17 04:47:07;;;;;;;12.97;10.97;;;;;;;;;;5095458;28;20466;-58
2021/04/17 04:49:33;;;;;;;13.90;11.03;;;;;;;;;;5096372;28;20523;-58
2021/04/17 04:55:09;;;;;;;13.15;10.90;;;;;;;;;;5096442;28;20388;-58
2021/04/17 04:57:45;;;;;;;15.33;12.53;;;;;;;;;;5095736;28;20355;-58
2021/04/17 05:00:18;;;;;;;13.20;10.70;;;;;;;;;;5096597;28;20024;-58
2021/04/17 05:02:49;;;;;;;13.20;11.30;;;;;;;;;;5095273;28;20028;-58
2021/04/17 05:05:24;;;;;;;15.03;11.70;;;;;;;;;;5096638;28;20031;-58
2021/04/17 05:11:02;;;;;;;13.80;10.47;;;;;;;;;;5096332;28;20044;-58
2021/04/17 05:13:31;;;;;;;12.33;11.03;;;;;;;;;;5095550;28;20032;-58
2021/04/17 05:16:24;;;;;;;13.93;11.80;;;;;;;;;;5096071;28;20023;-58
2021/04/17 05:19:00;;;;;;;16.37;12.33;;;;;;;;;;5096753;28;20032;-58
2021/04/17 05:21:33;;;;;;;13.53;12.13;;;;;;;;;;5094644;28;20024;-57
2021/04/17 05:24:03;;;;;;;17.37;12.70;;;;;;;;;;5077938;28;20040;-58
2021/04/17 05:26:38;;;;;;;15.10;11.63;;;;;;;;;;5077320;28;20092;-58
2021/04/17 05:29:30;;;;;;;14.03;11.93;;;;;;;;;;5095848;28;20039;-58
2021/04/17 05:32:07;;;;;;;13.77;11.07;;;;;;;;;;5096703;28;20024;-58
2021/04/17 05:34:42;;;;;;;14.03;12.10;;;;;;;;;;5094549;28;20035;-58
2021/04/17 05:37:12;;;;;;;17.77;13.77;;;;;;;;;;5096765;28;20024;-58
2021/04/17 05:40:19;;;;;;;18.77;11.90;;;;;;;;;;5096196;28;20036;-58
2021/04/17 05:42:51;;;;;;;14.83;11.50;;;;;;;;;;5096538;28;20020;-58
2021/04/17 05:45:17;;;;;;;13.97;10.60;;;;;;;;;;5094089;28;20081;-58
2021/04/17 05:47:48;;;;;;;14.37;11.73;;;;;;;;;;5094115;28;20489;-58
2021/04/17 05:50:17;;;;;;;14.18;11.85;;;;;;;;;;5095361;28;20058;-58
2021/04/17 05:52:46;;;;;;;16.93;12.00;;;;;;;;;;5095443;28;20020;-58
2021/04/17 05:55:27;;;;;;;14.97;13.40;;;;;;;;;;5096081;28;20020;-58
2021/04/17 05:57:59;;;;;;;17.43;13.10;;;;;;;;;;5094744;28;20028;-58
2021/04/17 06:00:35;;;;;;;17.63;13.67;;;;;;;;;;5096405;28;20031;-58
2021/04/17 06:03:17;;;;;;;17.00;13.47;;;;;;;;;;5094458;28;20058;-58
2021/04/17 06:05:44;;;;;;;19.47;13.77;;;;;;;;;;5094765;28;20058;-58
2021/04/17 06:08:11;;;;;;;15.07;12.07;;;;;;;;;;5095783;28;20032;-58
2021/04/17 06:10:51;;;;;;;16.00;12.23;;;;;;;;;;5093040;28;20063;-58
2021/04/17 06:13:20;;;;;;;;;;;;;;;;;;5096140;28;20466;-58
2021/04/17 06:15:46;;;;;;;15.33;13.53;;;;;;;;;;5095361;28;19904;-58
2021/04/17 06:18:17;;;;;;;16.27;12.43;;;;;;;;;;5094678;28;20032;-58
2021/04/17 06:20:53;;;;;;;;;;;;;;;;;;;;;
2021/04/17 06:23:34;;;;;;;16.53;13.63;;;;;;;;;;5092809;28;19911;-58
2021/04/17 06:26:00;;;;;;;;;;;;;;;;;;5093791;28;20028;-58
2021/04/17 06:28:36;;;;;;;16.43;12.83;;;;;;;;;;5093873;28;19999;-58
2021/04/17 06:31:04;;;;;;;14.10;12.60;;;;;;;;;;5093379;28;20449;-58
2021/04/17 06:33:33;;;;;;;15.80;13.20;;;;;;;;;;5094225;28;20032;-58
2021/04/17 06:36:04;;;;;;;18.47;13.53;;;;;;;;;;5094428;28;20024;-58
2021/04/17 06:38:40;;;;;;;16.30;14.13;;;;;;;;;;5094514;28;20048;-58
2021/04/17 06:41:12;;;;;;;18.63;13.37;;;;;;;;;;5095141;28;20035;-58
2021/04/17 06:43:45;;;;;;;13.40;12.10;;;;;;;;;;5094787;28;20040;-58
2021/04/17 06:46:14;;;;;;;19.53;12.03;;;;;;;;;;5095146;28;20031;-58
2021/04/17 06:48:46;;;;;;;22.42;11.50;;;;;;;;;;5094384;28;20024;-59
2021/04/17 06:51:24;;;;;;;14.10;12.68;;;;;;;;;;5094169;28;20432;-58
2021/04/17 06:53:51;;;;;;;16.85;12.23;;;;;;;;;;5093339;28;20514;-58
2021/04/17 06:56:23;;;;;;;15.35;12.57;;;;;;;;;;5094610;28;20024;-59
2021/04/17 06:58:55;;;;;;;15.15;13.50;;;;;;;;;;5094587;28;20504;-58
2021/04/17 07:01:21;;;;;;;17.80;13.25;;;;;;;;;;5093670;28;20445;-58
2021/04/17 07:03:49;;;;;;;15.50;12.75;;;;;;;;;;5093034;28;20520;-59
2021/04/17 07:06:21;;;;;;;15.15;12.77;;;;;;;;;;5094905;28;20028;-58
2021/04/17 07:08:53;;;;;;;15.40;11.70;;;;;;;;;;5092596;28;20031;-58
2021/04/17 07:11:26;;;;;;;15.07;12.20;;;;;;;;;;5092772;28;20385;-58
2021/04/17 07:14:08;;;;;;;17.63;12.55;;;;;;;;;;5095083;28;20016;-58
2021/04/17 07:16:54;;;;;;;17.67;12.88;;;;;;;;;;5093949;28;20032;-59
2021/04/17 07:19:23;;;;;;;16.67;12.85;;;;;;;;;;5094459;28;20036;-59
2021/04/17 07:22:02;;;;;;;16.77;11.75;;;;;;;;;;5093484;28;20035;-58
2021/04/17 07:24:39;;;;;;;12.18;10.63;;;;;;;;;;5093557;28;20130;-58
2021/04/17 07:27:12;;;;;;;15.98;10.98;;;;;;;;;;5094138;28;20457;-58
2021/04/17 07:29:44;;;;;;;16.38;11.80;;;;;;;;;;5094135;28;20064;-59
2021/04/17 07:32:31;;;;;;;14.95;12.05;;;;;;;;;;5093793;28;20422;-59
2021/04/17 07:35:15;;;;;;;17.15;11.18;;;;;;;;;;5093370;28;20024;-56
2021/04/17 07:38:01;;;;;;;13.05;9.75;;;;;;;;;;5093861;28;20020;-57
2021/04/17 07:40:27;;;;;;;14.10;9.57;;;;;;;;;;5093846;28;20028;-58
2021/04/17 07:43:17;;;;;;;12.50;11.00;;;;;;;;;;5094423;28;20020;-57
2021/04/17 07:46:01;;;;;;;17.10;10.35;;;;;;;;;;5093492;28;20063;-57
2021/04/17 07:48:33;;;;;;;11.38;9.50;;;;;;;;;;5093780;28;20020;-57
2021/04/17 07:51:02;;;;;;;16.20;10.60;;;;;;;;;;5093484;28;20501;-55
2021/04/17 07:53:30;;;;;;;12.18;9.82;;;;;;;;;;5092292;28;20036;-58
2021/04/17 07:56:15;;;;;;;12.82;11.02;;;;;;;;;;5093491;28;20031;-57
2021/04/17 07:58:48;;;;;;;15.30;10.65;;;;;;;;;;5093767;28;20024;-56
2021/04/17 08:01:17;;;;;;;11.27;9.50;;;;;;;;;;5094472;28;20024;-57
2021/04/17 08:03:47;;;;;;;13.07;9.25;;;;;;;;;;5091741;28;20358;-57
2021/04/17 08:06:14;;;;;;;13.13;8.32;;;;;;;;;;5075576;28;20314;-58
2021/04/17 08:08:41;;;;;;;10.52;8.07;;;;;;;;;;5092972;28;20034;-56
2021/04/17 08:11:13;;;;;;;11.38;9.82;;;;;;;;;;5092121;28;20028;-58
2021/04/17 08:13:48;;;;;;;11.38;8.15;;;;;;;;;;5091976;28;20373;-57
2021/04/17 08:16:18;;;;;;;10.93;9.05;;;;;;;;;;5093335;28;20031;-58
2021/04/17 08:18:47;;;;;;;12.40;9.68;;;;;;;;;;5091727;28;20028;-58
2021/04/17 08:21:17;;;;;;;13.60;9.07;;;;;;;;;;5092984;28;20025;-58
2021/04/17 08:23:49;;;;;;;9.80;8.83;;;;;;;;;;5092580;28;20445;-58
2021/04/17 08:26:18;;;;;;;12.77;10.25;;;;;;;;;;5093337;28;20284;-57
2021/04/17 08:28:45;;;;;;;10.77;8.07;;;;;;;;;;5092798;28;20465;-57
2021/04/17 08:31:46;;;;;;;14.18;7.97;;;;;;;;;;5093642;28;20078;-58
2021/04/17 08:34:16;;;;;;;14.67;10.37;;;;;;;;;;5093789;28;20024;-56
2021/04/17 08:36:52;;;;;;;10.00;8.35;;;;;;;;;;5091750;28;20047;-58
2021/04/17 08:39:34;;;;;;;9.52;7.55;;;;;;;;;;5091600;28;20122;-57
2021/04/17 08:42:05;;;;;;;9.10;7.35;;;;;;;;;;5092633;28;20032;-58
2021/04/17 08:44:41;;;;;;;;;;;;;;;;;;;;;
2021/04/17 08:47:15;;;;;;;9.10;7.28;;;;;;;;;;5093520;28;19904;-58
2021/04/17 08:49:44;;;;;;;9.50;8.43;;;;;;;;;;5092949;28;20354;-58
2021/04/17 08:52:22;;;;;;;8.73;7.82;;;;;;;;;;5073652;28;20051;-56
2021/04/17 08:55:08;;;;;;;13.00;9.27;;;;;;;;;;5091600;28;20038;-57
2021/04/17 08:57:38;;;;;;;13.00;9.40;;;;;;;;;;5054134;28;20050;-58
2021/04/17 09:00:07;;;;;;;10.02;8.70;;;;;;;;;;5095478;28;20031;-57
2021/04/17 09:02:43;;;;;;;10.75;9.05;;;;;;;;;;5095617;28;20036;-58
2021/04/17 09:05:16;;;;;;;10.45;8.23;;;;;;;;;;5079372;28;20028;-57
2021/04/17 09:07:47;;;;;;;13.77;8.80;;;;;;;;;;5078829;28;20060;-58
2021/04/17 09:10:35;;;;;;;11.75;7.35;;;;;;;;;;5095353;28;20028;-58
2021/04/17 09:13:24;;;;;;;13.43;8.68;;;;;;;;;;5095088;28;20024;-58
2021/04/17 09:16:12;;;;;;;9.23;7.28;;;;;;;;;;5094667;28;20024;-58
2021/04/17 09:18:42;;;;;;;7.63;6.68;;;;;;;;;;5095915;28;20028;-58
2021/04/17 09:21:08;;;;;;;7.93;6.45;;;;;;;;;;5094795;28;20060;-58
2021/04/17 09:23:42;;;;;;;8.73;6.75;;;;;;;;;;5096173;28;20127;-58
2021/04/17 09:26:08;;;;;;;9.32;7.15;;;;;;;;;;5095225;28;20024;-57
2021/04/17 09:28:35;;;;;;;9.18;7.22;;;;;;;;;;5094198;28;20038;-57
2021/04/17 09:31:05;;;;;;;9.43;6.53;;;;;;;;;;5095822;28;20443;-58
2021/04/17 09:33:34;;;;;;;10.80;6.05;;;;;;;;;;5095243;28;20032;-57
2021/04/17 09:36:10;;;;;;;9.35;5.95;;;;;;;;;;5095759;28;20032;-58
2021/04/17 09:38:39;;;;;;;7.47;6.13;;;;;;;;;;5095838;28;20024;-58
2021/04/17 09:41:09;;;;;;;13.82;6.95;;;;;;;;;;5096156;28;20043;-58
2021/04/17 09:43:36;;;;;;;8.07;7.13;;;;;;;;;;5095797;28;20028;-59
2021/04/17 09:46:06;;;;;;;7.80;6.13;;;;;;;;;;5094651;28;20142;-58
2021/04/17 09:48:42;;;;;;;6.00;4.20;;;;;;;;;;5094339;28;20035;-58
2021/04/17 09:51:21;;;;;;;8.73;4.95;;;;;;;;;;5093926;28;20125;-58
2021/04/17 09:53:51;;;;;;;8.35;5.25;;;;;;;;;;5077582;28;20021;-57
2021/04/17 09:56:45;;;;;;;5.88;4.32;;;;;;;;;;5095717;28;20032;-56
2021/04/17 09:59:12;;;;;;;4.95;3.45;;;;;;;;;;5095981;28;20095;-58
2021/04/17 10:01:50;;;;;;;5.97;5.18;;;;;;;;;;5095226;28;20104;-57
2021/04/17 10:04:19;;;;;;;6.05;5.43;;;;;;;;;;5077727;28;20473;-58
2021/04/17 10:06:54;;;;;;;9.32;5.95;;;;;;;;;;5077193;28;20472;-58
2021/04/17 10:09:21;;;;;;;8.25;5.75;;;;;;;;;;5077801;28;20087;-58
2021/04/17 10:11:50;;;;;;;9.48;4.80;;;;;;;;;;5095266;28;20032;-58
2021/04/17 10:14:26;;;;;;;7.03;4.68;;;;;;;;;;5094820;28;20031;-56
2021/04/17 10:16:52;;;;;;;6.57;4.50;;;;;;;;;;5093537;28;20028;-58
2021/04/17 10:19:20;;;;;;;6.20;4.53;;;;;;;;;;5094581;28;20395;-58
2021/04/17 10:21:54;;;;;;;5.47;4.07;;;;;;;;;;5095022;28;20389;-58
2021/04/17 10:24:21;;;;;;;7.05;4.88;;;;;;;;;;5093361;28;20031;-58
2021/04/17 10:26:50;;;;;;;7.07;5.82;;;;;;;;;;5092960;28;20036;-58
2021/04/17 10:29:20;;;;;;;13.45;6.30;;;;;;;;;;5093227;28;20468;-57
2021/04/17 10:31:48;;;;;;;7.32;5.50;;;;;;;;;;5093233;28;20040;-57
2021/04/17 10:34:22;;;;;;;7.07;5.32;;;;;;;;;;5094134;28;20035;-56
2021/04/17 10:36:57;;;;;;;7.95;5.20;;;;;;;;;;5092953;28;20433;-58
2021/04/17 10:39:24;;;;;;;7.63;5.63;;;;;;;;;;5094232;28;20085;-58
2021/04/17 10:41:58;;;;;;;9.05;7.47;;;;;;;;;;5094278;28;20372;-57
2021/04/17 10:44:26;;;;;;;5.97;5.28;;;;;;;;;;5092805;28;20031;-57
2021/04/17 10:46:53;;;;;;;8.05;5.22;;;;;;;;;;5093923;28;20462;-58
2021/04/17 10:49:33;;;;;;;9.60;6.53;;;;;;;;;;5094506;28;20104;-58
2021/04/17 10:52:01;;;;;;;7.20;5.60;;;;;;;;;;5092530;28;20047;-58
2021/04/17 10:54:27;;;;;;;8.07;5.55;;;;;;;;;;5092475;28;20377;-57
2021/04/17 10:57:06;;;;;;;5.47;4.47;;;;;;;;;;5093908;28;20051;-58
2021/04/17 10:59:54;;;;;;;8.00;5.25;;;;;;;;;;5094629;28;20481;-58
2021/04/17 11:02:31;;;;;;;5.88;4.82;;;;;;;;;;5093904;28;20074;-58
2021/04/17 11:04:58;;;;;;;6.05;4.93;;;;;;;;;;5092552;28;20028;-58
2021/04/17 11:07:37;;;;;;;5.82;4.72;;;;;;;;;;5093850;28;20111;-58
2021/04/17 11:10:14;;;;;;;6.22;4.22;;;;;;;;;;5092410;28;20400;-58
2021/04/17 11:12:40;;;;;;;6.82;5.35;;;;;;;;;;5093829;28;20472;-57
2021/04/17 11:15:14;;;;;;;7.55;5.13;;;;;;;;;;5093816;28;20020;-57
2021/04/17 11:17:41;;;;;;;7.53;5.53;;;;;;;;;;5093700;28;20024;-57
2021/04/17 11:20:21;;;;;;;6.68;4.97;;;;;;;;;;5091757;28;20089;-58
2021/04/17 11:22:52;;;;;;;5.68;4.53;;;;;;;;;;5093374;28;20047;-58
2021/04/17 11:25:18;;;;;;;6.05;3.72;;;;;;;;;;5075621;28;20108;-58
2021/04/17 11:27:50;;;;;;;4.63;3.60;;;;;;;;;;5093726;28;20451;-56
2021/04/17 11:30:19;;;;;;;4.30;3.60;;;;;;;;;;5092968;28;20032;-57
2021/04/17 11:32:45;;;;;;;5.90;4.45;;;;;;;;;;5093241;28;20074;-58
2021/04/17 11:35:12;;;;;;;5.68;4.03;;;;;;;;;;5093542;28;20028;-58
2021/04/17 11:37:38;;;;;;;5.85;3.97;;;;;;;;;;5091815;28;20477;-57
2021/04/17 11:40:05;;;;;;;6.22;4.22;;;;;;;;;;5093265;28;20032;-58
2021/04/17 11:42:33;;;;;;;6.03;4.97;;;;;;;;;;5091890;28;20492;-58
2021/04/17 11:45:04;;;;;;;5.82;4.05;;;;;;;;;;5093333;28;20115;-58
2021/04/17 11:47:33;;;;;;;4.70;3.78;;;;;;;;;;5091463;28;20374;-58
2021/04/17 11:49:59;;;;;;;5.05;4.00;;;;;;;;;;5092109;28;20036;-58
2021/04/17 11:52:25;;;;;;;5.15;3.97;;;;;;;;;;5093141;28;20076;-58
2021/04/17 11:54:52;;;;;;;5.50;4.50;;;;;;;;;;5092947;28;20031;-57
2021/04/17 11:57:18;;;;;;;4.95;4.00;;;;;;;;;;5092524;28;20051;-58
2021/04/17 11:59:50;;;;;;;6.05;4.47;;;;;;;;;;5075615;28;20048;-58
2021/04/17 12:02:16;;;;;;;8.10;4.05;;;;;;;;;;5093711;28;20039;-58
2021/04/17 12:04:45;;;;;;;5.88;4.22;;;;;;;;;;5093648;28;20059;-58
2021/04/17 12:07:14;;;;;;;5.45;3.95;;;;;;;;;;5091602;28;20024;-58
2021/04/17 12:09:41;;;;;;;7.05;3.70;;;;;;;;;;5091568;28;20118;-58
2021/04/17 12:12:07;;;;;;;6.00;3.72;;;;;;;;;;5091423;28;20032;-58
2021/04/17 12:14:33;;;;;;;7.22;4.15;;;;;;;;;;5091953;28;20054;-58
2021/04/17 12:17:03;;;;;;;4.50;3.92;;;;;;;;;;5093191;28;20020;-58
2021/04/17 12:19:29;;;;;;;7.28;4.03;;;;;;;;;;5092386;28;20077;-58
2021/04/17 12:21:57;;;;;;;6.00;4.00;;;;;;;;;;5093573;28;20086;-58
2021/04/17 12:24:23;;;;;;;6.55;4.03;;;;;;;;;;5092189;28;20081;-58
2021/04/17 12:26:52;;;;;;;5.18;4.10;;;;;;;;;;5092928;28;20530;-58
2021/04/17 12:29:20;;;;;;;10.63;3.85;;;;;;;;;;5091554;28;20036;-58
2021/04/17 12:31:46;;;;;;;5.43;4.10;;;;;;;;;;5093658;28;20512;-58
2021/04/17 12:34:14;;;;;;;4.07;3.00;;;;;;;;;;5096797;28;20032;-58
2021/04/17 12:36:41;;;;;;;3.40;2.80;;;;;;;;;;5095436;28;20055;-58
2021/04/17 12:39:07;;;;;;;4.47;3.03;;;;;;;;;;5095468;28;20036;-56
2021/04/17 12:41:34;;;;;;;5.00;3.65;;;;;;;;;;5096012;28;20062;-58
2021/04/17 12:44:02;;;;;;;5.28;3.17;;;;;;;;;;5095471;28;20028;-58
2021/04/17 12:46:43;;;;;;;4.80;3.55;;;;;;;;;;5096819;28;20024;-57
2021/04/17 12:49:09;;;;;;;4.57;3.42;;;;;;;;;;5096237;28;20056;-58
2021/04/17 12:51:35;;;;;;;4.97;3.45;;;;;;;;;;5095394;28;20418;-59
2021/04/17 12:54:02;;;;;;;6.10;2.83;;;;;;;;;;5096243;28;20032;-58
2021/04/17 12:56:28;;;;;;;3.90;2.38;;;;;;;;;;5094971;28;20385;-58
2021/04/17 12:58:56;;;;;;;3.53;2.70;;;;;;;;;;5096963;28;20417;-58
2021/04/17 13:01:23;;;;;;;3.85;3.28;;;;;;;;;;5094730;28;20028;-57
2021/04/17 13:03:49;;;;;;;3.90;3.00;;;;;;;;;;5096677;28;20031;-58
2021/04/17 13:06:15;;;;;;;6.72;3.00;;;;;;;;;;5094761;28;20081;-59
2021/04/17 13:08:43;;;;;;;5.38;3.35;;;;;;;;;;5094801;28;20428;-59
2021/04/17 13:11:13;;;;;;;4.22;3.10;;;;;;;;;;5094995;28;20032;-59
2021/04/17 13:13:39;;;;;;;3.92;2.88;;;;;;;;;;5094152;28;20024;-59
2021/04/17 13:16:05;;;;;;;3.47;2.58;;;;;;;;;;5094296;28;20039;-58
2021/04/17 13:18:31;;;;;;;4.35;3.00;;;;;;;;;;5095949;28;20424;-59
2021/04/17 13:20:57;;;;;;;4.50;3.28;;;;;;;;;;5096028;28;20107;-59
2021/04/17 13:23:23;;;;;;;4.90;3.40;;;;;;;;;;5094287;28;20085;-58
2021/04/17 13:25:50;;;;;;;4.13;3.10;;;;;;;;;;5096001;28;20028;-59
2021/04/17 13:28:21;;;;;;;3.85;3.10;;;;;;;;;;5095852;28;20085;-58
2021/04/17 13:30:47;;;;;;;6.43;2.83;;;;;;;;;;5096661;28;20067;-59
2021/04/17 13:33:13;;;;;;;4.07;2.65;;;;;;;;;;5095735;28;20024;-58
2021/04/17 13:35:43;;;;;;;3.40;2.38;;;;;;;;;;5094026;28;20165;-59
2021/04/17 13:38:09;;;;;;;3.97;2.53;;;;;;;;;;5093549;28;20389;-58
2021/04/17 13:40:35;;;;;;;3.75;2.38;;;;;;;;;;5096067;28;20470;-59
2021/04/17 13:43:01;;;;;;;3.45;2.25;;;;;;;;;;5095206;28;20114;-58
2021/04/17 13:45:27;;;;;;;5.07;2.80;;;;;;;;;;5077144;28;20077;-59
2021/04/17 13:47:53;;;;;;;3.97;2.00;;;;;;;;;;5094864;28;20153;-59
2021/04/17 13:50:19;;;;;;;3.97;2.20;;;;;;;;;;5095781;28;20047;-59
2021/04/17 13:52:45;;;;;;;3.20;2.42;;;;;;;;;;5095341;28;20052;-59
2021/04/17 13:55:12;;;;;;;3.38;2.50;;;;;;;;;;5095425;28;20111;-59
2021/04/17 13:57:38;;;;;;;5.30;2.35;;;;;;;;;;5095393;28;20027;-59
2021/04/17 14:00:05;;;;;;;4.15;2.75;;;;;;;;;;5094616;28;20024;-59
2021/04/17 14:02:32;;;;;;;3.88;2.70;;;;;;;;;;5095635;28;20024;-59
2021/04/17 14:04:58;;;;;;;3.25;2.38;;;;;;;;;;5094368;28;20032;-59
2021/04/17 14:07:24;;;;;;;3.25;2.42;;;;;;;;;;5094299;28;20084;-58
2021/04/17 14:09:50;;;;;;;7.10;2.33;;;;;;;;;;5094294;28;20077;-59
2021/04/17 14:12:16;;;;;;;5.32;1.75;;;;;;;;;;5094600;28;20039;-59
2021/04/17 14:14:42;;;;;;;3.63;2.38;;;;;;;;;;5095229;28;20457;-59
2021/04/17 14:17:08;;;;;;;3.45;2.38;;;;;;;;;;5094678;28;20058;-59
2021/04/17 14:19:35;;;;;;;4.55;2.28;;;;;;;;;;5094541;28;20446;-59
2021/04/17 14:22:01;;;;;;;5.10;2.85;;;;;;;;;;5093255;28;20101;-59
2021/04/17 14:24:27;;;;;;;3.88;2.20;;;;;;;;;;5095022;28;20401;-59
2021/04/17 14:26:53;;;;;;;3.42;2.38;;;;;;;;;;5094995;28;20099;-59
2021/04/17 14:29:19;;;;;;;4.10;2.58;;;;;;;;;;5094391;28;20031;-59
2021/04/17 14:31:46;;;;;;;4.43;2.20;;;;;;;;;;5094862;28;20124;-59
2021/04/17 14:34:12;;;;;;;4.05;2.65;;;;;;;;;;5094915;28;20032;-58
2021/04/17 14:36:38;;;;;;;3.20;2.35;;;;;;;;;;5094291;28;20020;-59
2021/04/17 14:39:05;;;;;;;6.60;3.55;;;;;;;;;;5094161;28;20047;-59
2021/04/17 14:41:31;;;;;;;2.85;2.30;;;;;;;;;;5094365;28;20024;-59
2021/04/17 14:43:58;;;;;;;3.85;2.55;;;;;;;;;;5094590;28;20479;-58
2021/04/17 14:46:24;;;;;;;4.13;2.45;;;;;;;;;;5094540;28;20516;-59
2021/04/17 14:48:51;;;;;;;3.00;2.05;;;;;;;;;;5094141;28;20103;-59
2021/04/17 14:51:17;;;;;;;5.13;2.40;;;;;;;;;;5075808;28;20182;-59
2021/04/17 14:53:43;;;;;;;3.00;1.90;;;;;;;;;;5094097;28;20035;-59
2021/04/17 14:56:10;;;;;;;4.10;2.53;;;;;;;;;;5092049;28;20114;-59
2021/04/17 14:58:36;;;;;;;6.25;2.80;;;;;;;;;;5092682;28;20536;-59
2021/04/17 15:01:02;;;;;;;3.88;2.28;;;;;;;;;;5093056;28;20114;-59
2021/04/17 15:03:28;;;;;;;2.83;1.70;;;;;;;;;;5094022;28;20069;-59
2021/04/17 15:05:57;;;;;;;4.20;2.58;;;;;;;;;;5092547;28;20020;-59
2021/04/17 15:08:23;;;;;;;4.97;2.35;;;;;;;;;;5094667;28;20035;-59
2021/04/17 15:10:49;;;;;;;3.03;1.80;;;;;;;;;;5094663;28;20032;-59
2021/04/17 15:13:15;;;;;;;3.13;2.08;;;;;;;;;;5093461;28;20123;-59
2021/04/17 15:15:41;;;;;;;4.03;2.22;;;;;;;;;;5093957;28;20027;-58
2021/04/17 15:18:07;;;;;;;3.83;2.45;;;;;;;;;;5092686;28;20481;-58
2021/04/17 15:20:36;;;;;;;2.63;1.67;;;;;;;;;;5094123;28;20031;-59
2021/04/17 15:23:03;;;;;;;4.32;2.45;;;;;;;;;;5094425;28;20441;-58